sensor_id;sensor_type;location;lat;lon;timestamp;pressure;altitude;pressure_sealevel;temperature;humidity
65897;BME280;52677;50.898;10.854;2023-02-22T00:00:31;98566.59;;;7.10;100.00
65897;BME280;52677;50.898;10.854;2023-02-22T00:02:48;98559.84;;;7.07;100.00
65897;BME280;52677;50.898;10.854;2023-02-22T00:04:48;98563.41;;;7.08;100.00
65897;BME280;52677;50.898;10.854;2023-02-22T00:06:48;98563.31;;;7.04;100.00
65897;BME280;52677;50.898;10.854;2023-02-22T00:08:49;98560.81;;;6.99;100.00
65897;BME280;52677;50.898;10.854;2023-02-22T00:10:49;98547.22;;;6.90;100.00
65897;BME280;52677;50.898;10.854;2023-02-22T00:12:51;98549.88;;;6.87;100.00
65897;BME280;52677;50.898;10.854;2023-02-22T00:14:52;98544.09;;;6.76;100.00
65897;BME280;52677;50.898;10.854;2023-02-22T00:16:53;98537.69;;;6.72;100.00
65897;BME280;52677;50.898;10.854;2023-02-22T00:18:58;98538.38;;;6.69;100.00
65897;BME280;52677;50.898;10.854;2023-02-22T00:20:59;98545.75;;;6.65;100.00
65897;BME280;52677;50.898;10.854;2023-02-22T00:23:00;98533.41;;;6.59;100.00
65897;BME280;52677;50.898;10.854;2023-02-22T00:25:00;98533.63;;;6.54;100.00
65897;BME280;52677;50.898;10.854;2023-02-22T00:27:00;98534.34;;;6.51;100.00
65897;BME280;52677;50.898;10.854;2023-02-22T00:29:02;98536.53;;;6.45;100.00
65897;BME280;52677;50.898;10.854;2023-02-22T00:31:04;98541.13;;;6.41;100.00
65897;BME280;52677;50.898;10.854;2023-02-22T00:33:05;98527.63;;;6.36;100.00
65897;BME280;52677;50.898;10.854;2023-02-22T00:35:06;98523.56;;;6.30;100.00
65897;BME280;52677;50.898;10.854;2023-02-22T00:37:09;98529.63;;;6.23;100.00
65897;BME280;52677;50.898;10.854;2023-02-22T00:39:10;98520.47;;;6.19;100.00
65897;BME280;52677;50.898;10.854;2023-02-22T00:41:10;98522.69;;;6.13;100.00
65897;BME280;52677;50.898;10.854;2023-02-22T00:43:11;98522.56;;;6.10;100.00
65897;BME280;52677;50.898;10.854;2023-02-22T00:45:15;98524.06;;;6.07;100.00
65897;BME280;52677;50.898;10.854;2023-02-22T00:47:15;98518.44;;;6.04;100.00
65897;BME280;52677;50.898;10.854;2023-02-22T00:49:16;98521.44;;;5.99;100.00
65897;BME280;52677;50.898;10.854;2023-02-22T00:51:16;98521.56;;;5.90;100.00
65897;BME280;52677;50.898;10.854;2023-02-22T00:53:16;98519.72;;;5.82;100.00
65897;BME280;52677;50.898;10.854;2023-02-22T00:55:27;98520.88;;;5.81;100.00
65897;BME280;52677;50.898;10.854;2023-02-22T00:57:28;98526.25;;;5.77;100.00
65897;BME280;52677;50.898;10.854;2023-02-22T00:59:28;98508.44;;;5.71;100.00
65897;BME280;52677;50.898;10.854;2023-02-22T01:01:30;98521.59;;;5.66;100.00
65897;BME280;52677;50.898;10.854;2023-02-22T01:03:30;98527.88;;;5.66;100.00
65897;BME280;52677;50.898;10.854;2023-02-22T01:05:31;98515.50;;;5.60;100.00
65897;BME280;52677;50.898;10.854;2023-02-22T01:07:32;98515.97;;;5.50;100.00
65897;BME280;52677;50.898;10.854;2023-02-22T01:09:32;98523.41;;;5.49;100.00
65897;BME280;52677;50.898;10.854;2023-02-22T01:11:34;98520.75;;;5.28;100.00
65897;BME280;52677;50.898;10.854;2023-02-22T01:13:34;98511.75;;;5.16;100.00
65897;BME280;52677;50.898;10.854;2023-02-22T01:15:36;98527.03;;;5.04;100.00
65897;BME280;52677;50.898;10.854;2023-02-22T01:17:38;98520.63;;;5.00;100.00
65897;BME280;52677;50.898;10.854;2023-02-22T01:19:38;98511.00;;;4.94;100.00
65897;BME280;52677;50.898;10.854;2023-02-22T01:21:42;98514.44;;;4.91;100.00
65897;BME280;52677;50.898;10.854;2023-02-22T01:23:45;98509.97;;;4.87;100.00
65897;BME280;52677;50.898;10.854;2023-02-22T01:25:46;98508.25;;;4.82;100.00
65897;BME280;52677;50.898;10.854;2023-02-22T01:27:46;98511.91;;;4.86;100.00
65897;BME280;52677;50.898;10.854;2023-02-22T01:29:48;98505.19;;;4.84;100.00
65897;BME280;52677;50.898;10.854;2023-02-22T01:31:51;98503.44;;;4.79;100.00
65897;BME280;52677;50.898;10.854;2023-02-22T01:33:53;98506.31;;;4.83;100.00
65897;BME280;52677;50.898;10.854;2023-02-22T01:35:53;98501.84;;;4.78;100.00
65897;BME280;52677;50.898;10.854;2023-02-22T01:37:55;98510.59;;;4.71;100.00
65897;BME280;52677;50.898;10.854;2023-02-22T01:39:57;98495.66;;;4.69;100.00
65897;BME280;52677;50.898;10.854;2023-02-22T01:41:59;98505.69;;;4.65;100.00
65897;BME280;52677;50.898;10.854;2023-02-22T01:44:20;98498.03;;;4.58;100.00
65897;BME280;52677;50.898;10.854;2023-02-22T01:46:25;98503.38;;;4.55;100.00
65897;BME280;52677;50.898;10.854;2023-02-22T01:49:02;98494.22;;;4.50;100.00
65897;BME280;52677;50.898;10.854;2023-02-22T01:51:21;98495.22;;;4.46;100.00
65897;BME280;52677;50.898;10.854;2023-02-22T01:53:29;98501.75;;;4.41;100.00
65897;BME280;52677;50.898;10.854;2023-02-22T01:55:33;98487.44;;;4.36;100.00
65897;BME280;52677;50.898;10.854;2023-02-22T01:57:36;98490.06;;;4.32;100.00
65897;BME280;52677;50.898;10.854;2023-02-22T01:59:40;98498.81;;;4.26;100.00
65897;BME280;52677;50.898;10.854;2023-02-22T02:01:42;98491.41;;;4.26;100.00
65897;BME280;52677;50.898;10.854;2023-02-22T02:03:43;98494.59;;;4.28;100.00
65897;BME280;52677;50.898;10.854;2023-02-22T02:05:44;98489.47;;;4.27;100.00
65897;BME280;52677;50.898;10.854;2023-02-22T02:07:45;98479.03;;;4.20;100.00
65897;BME280;52677;50.898;10.854;2023-02-22T02:09:59;98483.00;;;4.10;100.00
65897;BME280;52677;50.898;10.854;2023-02-22T02:12:01;98485.34;;;4.00;100.00
65897;BME280;52677;50.898;10.854;2023-02-22T02:14:04;98480.59;;;3.88;100.00
65897;BME280;52677;50.898;10.854;2023-02-22T02:16:04;98479.84;;;3.79;100.00
65897;BME280;52677;50.898;10.854;2023-02-22T02:18:07;98494.16;;;3.84;100.00
65897;BME280;52677;50.898;10.854;2023-02-22T02:20:22;98498.94;;;3.87;100.00
65897;BME280;52677;50.898;10.854;2023-02-22T02:22:46;98491.69;;;3.91;100.00
65897;BME280;52677;50.898;10.854;2023-02-22T02:27:25;98486.00;;;3.97;100.00
65897;BME280;52677;50.898;10.854;2023-02-22T02:29:53;98484.56;;;3.99;100.00
65897;BME280;52677;50.898;10.854;2023-02-22T02:32:24;98483.19;;;4.05;100.00
65897;BME280;52677;50.898;10.854;2023-02-22T02:34:47;98478.06;;;4.04;100.00
65897;BME280;52677;50.898;10.854;2023-02-22T02:37:20;98481.84;;;4.11;100.00
65897;BME280;52677;50.898;10.854;2023-02-22T02:39:32;98470.91;;;4.11;100.00
65897;BME280;52677;50.898;10.854;2023-02-22T02:41:38;98471.59;;;4.08;100.00
65897;BME280;52677;50.898;10.854;2023-02-22T02:45:52;98473.88;;;4.06;100.00
65897;BME280;52677;50.898;10.854;2023-02-22T02:47:55;98471.25;;;4.10;100.00
65897;BME280;52677;50.898;10.854;2023-02-22T02:50:10;98464.63;;;4.11;100.00
65897;BME280;52677;50.898;10.854;2023-02-22T02:52:14;98465.78;;;4.10;100.00
65897;BME280;52677;50.898;10.854;2023-02-22T02:54:15;98466.22;;;4.12;100.00
65897;BME280;52677;50.898;10.854;2023-02-22T02:56:17;98467.72;;;4.09;100.00
65897;BME280;52677;50.898;10.854;2023-02-22T02:58:20;98463.38;;;4.08;100.00
65897;BME280;52677;50.898;10.854;2023-02-22T03:00:25;98458.09;;;4.03;100.00
65897;BME280;52677;50.898;10.854;2023-02-22T03:03:05;98459.56;;;4.01;100.00
65897;BME280;52677;50.898;10.854;2023-02-22T03:05:13;98459.13;;;3.99;100.00
65897;BME280;52677;50.898;10.854;2023-02-22T03:07:27;98459.38;;;4.06;100.00
65897;BME280;52677;50.898;10.854;2023-02-22T03:10:01;98454.34;;;4.08;100.00
65897;BME280;52677;50.898;10.854;2023-02-22T03:19:03;98442.22;;;4.30;100.00
65897;BME280;52677;50.898;10.854;2023-02-22T03:21:31;98443.34;;;4.29;100.00
65897;BME280;52677;50.898;10.854;2023-02-22T03:26:32;98446.44;;;4.27;100.00
65897;BME280;52677;50.898;10.854;2023-02-22T03:28:34;98443.00;;;4.30;100.00
65897;BME280;52677;50.898;10.854;2023-02-22T03:30:40;98435.28;;;4.32;100.00
65897;BME280;52677;50.898;10.854;2023-02-22T03:32:43;98444.41;;;4.36;100.00
65897;BME280;52677;50.898;10.854;2023-02-22T03:35:05;98445.34;;;4.40;100.00
65897;BME280;52677;50.898;10.854;2023-02-22T03:37:12;98444.88;;;4.38;100.00
65897;BME280;52677;50.898;10.854;2023-02-22T03:39:15;98448.44;;;4.39;100.00
65897;BME280;52677;50.898;10.854;2023-02-22T03:41:18;98449.69;;;4.41;100.00
65897;BME280;52677;50.898;10.854;2023-02-22T03:43:30;98439.97;;;4.44;100.00
65897;BME280;52677;50.898;10.854;2023-02-22T03:45:35;98433.97;;;4.50;100.00
65897;BME280;52677;50.898;10.854;2023-02-22T03:47:42;98432.81;;;4.51;100.00
65897;BME280;52677;50.898;10.854;2023-02-22T03:49:50;98426.53;;;4.51;100.00
65897;BME280;52677;50.898;10.854;2023-02-22T03:51:52;98425.28;;;4.48;100.00
65897;BME280;52677;50.898;10.854;2023-02-22T03:53:53;98428.69;;;4.45;100.00
65897;BME280;52677;50.898;10.854;2023-02-22T03:55:54;98435.66;;;4.43;100.00
65897;BME280;52677;50.898;10.854;2023-02-22T03:57:59;98428.56;;;4.42;100.00
65897;BME280;52677;50.898;10.854;2023-02-22T04:00:03;98427.44;;;4.43;100.00
65897;BME280;52677;50.898;10.854;2023-02-22T04:02:05;98423.09;;;4.42;100.00
65897;BME280;52677;50.898;10.854;2023-02-22T04:04:06;98417.47;;;4.38;100.00
65897;BME280;52677;50.898;10.854;2023-02-22T04:06:07;98425.56;;;4.35;100.00
65897;BME280;52677;50.898;10.854;2023-02-22T04:08:08;98428.53;;;4.30;100.00
65897;BME280;52677;50.898;10.854;2023-02-22T04:10:09;98426.34;;;4.23;100.00
65897;BME280;52677;50.898;10.854;2023-02-22T04:12:10;98419.13;;;4.18;100.00
65897;BME280;52677;50.898;10.854;2023-02-22T04:14:11;98425.66;;;4.14;100.00
65897;BME280;52677;50.898;10.854;2023-02-22T04:16:12;98413.75;;;4.10;100.00
65897;BME280;52677;50.898;10.854;2023-02-22T04:18:12;98421.16;;;4.09;100.00
65897;BME280;52677;50.898;10.854;2023-02-22T04:20:14;98422.31;;;4.08;100.00
65897;BME280;52677;50.898;10.854;2023-02-22T04:22:17;98417.47;;;4.05;100.00
65897;BME280;52677;50.898;10.854;2023-02-22T04:24:17;98420.09;;;4.02;100.00
65897;BME280;52677;50.898;10.854;2023-02-22T04:26:18;98415.31;;;3.99;100.00
65897;BME280;52677;50.898;10.854;2023-02-22T04:28:18;98415.16;;;3.95;100.00
65897;BME280;52677;50.898;10.854;2023-02-22T04:30:19;98414.81;;;3.97;100.00
65897;BME280;52677;50.898;10.854;2023-02-22T04:32:20;98421.44;;;3.95;100.00
65897;BME280;52677;50.898;10.854;2023-02-22T04:34:20;98415.50;;;3.93;100.00
65897;BME280;52677;50.898;10.854;2023-02-22T04:36:20;98418.94;;;3.90;100.00
65897;BME280;52677;50.898;10.854;2023-02-22T04:38:21;98404.97;;;3.83;100.00
65897;BME280;52677;50.898;10.854;2023-02-22T04:40:21;98416.13;;;3.78;100.00
65897;BME280;52677;50.898;10.854;2023-02-22T04:42:21;98409.91;;;3.69;100.00
65897;BME280;52677;50.898;10.854;2023-02-22T04:44:22;98402.56;;;3.61;100.00
65897;BME280;52677;50.898;10.854;2023-02-22T04:46:22;98400.72;;;3.53;100.00
65897;BME280;52677;50.898;10.854;2023-02-22T04:48:22;98405.72;;;3.51;100.00
65897;BME280;52677;50.898;10.854;2023-02-22T04:50:23;98405.91;;;3.46;100.00
65897;BME280;52677;50.898;10.854;2023-02-22T04:52:23;98401.91;;;3.43;100.00
65897;BME280;52677;50.898;10.854;2023-02-22T04:54:23;98403.69;;;3.39;100.00
65897;BME280;52677;50.898;10.854;2023-02-22T04:56:24;98404.56;;;3.31;100.00
65897;BME280;52677;50.898;10.854;2023-02-22T04:58:24;98403.16;;;3.25;100.00
65897;BME280;52677;50.898;10.854;2023-02-22T05:00:25;98400.63;;;3.20;100.00
65897;BME280;52677;50.898;10.854;2023-02-22T05:02:25;98399.47;;;3.21;100.00
65897;BME280;52677;50.898;10.854;2023-02-22T05:04:25;98391.16;;;3.17;100.00
65897;BME280;52677;50.898;10.854;2023-02-22T05:06:26;98394.22;;;3.16;100.00
65897;BME280;52677;50.898;10.854;2023-02-22T05:08:26;98383.47;;;3.10;100.00
65897;BME280;52677;50.898;10.854;2023-02-22T05:10:26;98399.75;;;3.07;100.00
65897;BME280;52677;50.898;10.854;2023-02-22T05:12:27;98378.09;;;2.93;100.00
65897;BME280;52677;50.898;10.854;2023-02-22T05:14:27;98387.78;;;2.91;100.00
65897;BME280;52677;50.898;10.854;2023-02-22T05:16:28;98394.22;;;2.86;100.00
65897;BME280;52677;50.898;10.854;2023-02-22T05:18:28;98379.63;;;2.82;100.00
65897;BME280;52677;50.898;10.854;2023-02-22T05:20:32;98396.66;;;2.79;100.00
65897;BME280;52677;50.898;10.854;2023-02-22T05:22:33;98389.75;;;2.73;100.00
65897;BME280;52677;50.898;10.854;2023-02-22T05:24:33;98385.28;;;2.68;100.00
65897;BME280;52677;50.898;10.854;2023-02-22T05:26:34;98381.47;;;2.61;100.00
65897;BME280;52677;50.898;10.854;2023-02-22T05:28:34;98379.88;;;2.60;100.00
65897;BME280;52677;50.898;10.854;2023-02-22T05:30:35;98369.31;;;2.49;100.00
65897;BME280;52677;50.898;10.854;2023-02-22T05:32:38;98374.63;;;2.46;100.00
65897;BME280;52677;50.898;10.854;2023-02-22T05:34:39;98377.03;;;2.39;100.00
65897;BME280;52677;50.898;10.854;2023-02-22T05:36:39;98378.84;;;2.35;100.00
65897;BME280;52677;50.898;10.854;2023-02-22T05:38:39;98387.84;;;2.27;100.00
65897;BME280;52677;50.898;10.854;2023-02-22T05:40:42;98387.22;;;2.21;100.00
65897;BME280;52677;50.898;10.854;2023-02-22T05:42:43;98384.16;;;2.22;100.00
65897;BME280;52677;50.898;10.854;2023-02-22T05:44:43;98385.28;;;2.21;100.00
65897;BME280;52677;50.898;10.854;2023-02-22T05:46:43;98389.94;;;2.21;100.00
65897;BME280;52677;50.898;10.854;2023-02-22T05:48:44;98383.22;;;2.18;100.00
65897;BME280;52677;50.898;10.854;2023-02-22T05:50:44;98379.84;;;2.13;100.00
65897;BME280;52677;50.898;10.854;2023-02-22T05:52:45;98380.03;;;2.08;100.00
65897;BME280;52677;50.898;10.854;2023-02-22T05:54:46;98376.34;;;2.04;100.00
65897;BME280;52677;50.898;10.854;2023-02-22T05:56:46;98382.81;;;1.90;100.00
65897;BME280;52677;50.898;10.854;2023-02-22T05:58:47;98378.16;;;1.82;100.00
65897;BME280;52677;50.898;10.854;2023-02-22T06:00:47;98380.56;;;1.75;100.00
65897;BME280;52677;50.898;10.854;2023-02-22T06:02:53;98389.06;;;1.74;100.00
65897;BME280;52677;50.898;10.854;2023-02-22T06:04:53;98383.59;;;1.65;100.00
65897;BME280;52677;50.898;10.854;2023-02-22T06:06:54;98383.13;;;1.63;100.00
65897;BME280;52677;50.898;10.854;2023-02-22T06:08:54;98376.41;;;1.60;100.00
65897;BME280;52677;50.898;10.854;2023-02-22T06:10:54;98379.47;;;1.59;100.00
65897;BME280;52677;50.898;10.854;2023-02-22T06:12:55;98372.22;;;1.54;100.00
65897;BME280;52677;50.898;10.854;2023-02-22T06:14:56;98381.06;;;1.51;100.00
65897;BME280;52677;50.898;10.854;2023-02-22T06:16:57;98382.66;;;1.52;100.00
65897;BME280;52677;50.898;10.854;2023-02-22T06:18:58;98381.69;;;1.57;100.00
65897;BME280;52677;50.898;10.854;2023-02-22T06:20:59;98377.06;;;1.57;100.00
65897;BME280;52677;50.898;10.854;2023-02-22T06:22:59;98378.16;;;1.65;100.00
65897;BME280;52677;50.898;10.854;2023-02-22T06:25:04;98378.81;;;1.62;100.00
65897;BME280;52677;50.898;10.854;2023-02-22T06:27:05;98381.06;;;1.60;100.00
65897;BME280;52677;50.898;10.854;2023-02-22T06:29:05;98385.53;;;1.56;100.00
65897;BME280;52677;50.898;10.854;2023-02-22T06:31:06;98374.31;;;1.49;100.00
65897;BME280;52677;50.898;10.854;2023-02-22T06:33:06;98383.94;;;1.46;100.00
65897;BME280;52677;50.898;10.854;2023-02-22T06:35:07;98392.75;;;1.43;100.00
65897;BME280;52677;50.898;10.854;2023-02-22T06:37:08;98391.47;;;1.40;100.00
65897;BME280;52677;50.898;10.854;2023-02-22T06:39:08;98385.72;;;1.42;100.00
65897;BME280;52677;50.898;10.854;2023-02-22T06:41:11;98391.47;;;1.40;100.00
65897;BME280;52677;50.898;10.854;2023-02-22T06:43:11;98385.38;;;1.35;100.00
65897;BME280;52677;50.898;10.854;2023-02-22T06:45:12;98392.13;;;1.37;100.00
65897;BME280;52677;50.898;10.854;2023-02-22T06:47:12;98386.66;;;1.37;100.00
65897;BME280;52677;50.898;10.854;2023-02-22T06:49:13;98386.34;;;1.39;100.00
65897;BME280;52677;50.898;10.854;2023-02-22T06:51:13;98389.84;;;1.39;100.00
65897;BME280;52677;50.898;10.854;2023-02-22T06:53:13;98389.72;;;1.45;100.00
65897;BME280;52677;50.898;10.854;2023-02-22T06:55:19;98398.53;;;1.50;100.00
65897;BME280;52677;50.898;10.854;2023-02-22T06:57:19;98405.13;;;1.49;100.00
65897;BME280;52677;50.898;10.854;2023-02-22T06:59:19;98396.13;;;1.49;100.00
65897;BME280;52677;50.898;10.854;2023-02-22T07:01:20;98394.50;;;1.48;100.00
65897;BME280;52677;50.898;10.854;2023-02-22T07:03:20;98400.63;;;1.45;100.00
65897;BME280;52677;50.898;10.854;2023-02-22T07:05:22;98398.03;;;1.48;100.00
65897;BME280;52677;50.898;10.854;2023-02-22T07:07:22;98402.69;;;1.48;100.00
65897;BME280;52677;50.898;10.854;2023-02-22T07:09:24;98403.34;;;1.45;100.00
65897;BME280;52677;50.898;10.854;2023-02-22T07:11:24;98400.94;;;1.43;100.00
65897;BME280;52677;50.898;10.854;2023-02-22T07:13:25;98401.91;;;1.47;100.00
65897;BME280;52677;50.898;10.854;2023-02-22T07:15:27;98402.69;;;1.56;100.00
65897;BME280;52677;50.898;10.854;2023-02-22T07:17:27;98410.59;;;1.58;100.00
65897;BME280;52677;50.898;10.854;2023-02-22T07:19:28;98406.41;;;1.60;100.00
65897;BME280;52677;50.898;10.854;2023-02-22T07:21:28;98401.91;;;1.64;100.00
65897;BME280;52677;50.898;10.854;2023-02-22T07:23:29;98406.88;;;1.71;100.00
65897;BME280;52677;50.898;10.854;2023-02-22T07:25:30;98401.91;;;1.73;100.00
65897;BME280;52677;50.898;10.854;2023-02-22T07:27:30;98401.75;;;1.78;100.00
65897;BME280;52677;50.898;10.854;2023-02-22T07:29:30;98407.19;;;1.87;100.00
65897;BME280;52677;50.898;10.854;2023-02-22T07:31:35;98414.25;;;1.88;100.00
65897;BME280;52677;50.898;10.854;2023-02-22T07:33:36;98410.88;;;1.91;100.00
65897;BME280;52677;50.898;10.854;2023-02-22T07:35:37;98412.16;;;1.93;100.00
65897;BME280;52677;50.898;10.854;2023-02-22T07:37:37;98412.31;;;1.97;100.00
65897;BME280;52677;50.898;10.854;2023-02-22T07:39:38;98406.22;;;2.00;100.00
65897;BME280;52677;50.898;10.854;2023-02-22T07:41:41;98403.81;;;2.07;100.00
65897;BME280;52677;50.898;10.854;2023-02-22T07:43:42;98401.22;;;2.11;100.00
65897;BME280;52677;50.898;10.854;2023-02-22T07:45:46;98399.59;;;2.18;100.00
65897;BME280;52677;50.898;10.854;2023-02-22T07:47:47;98399.56;;;2.27;100.00
65897;BME280;52677;50.898;10.854;2023-02-22T07:49:47;98404.88;;;2.32;100.00
65897;BME280;52677;50.898;10.854;2023-02-22T07:51:47;98406.63;;;2.37;100.00
65897;BME280;52677;50.898;10.854;2023-02-22T07:53:48;98406.59;;;2.45;100.00
65897;BME280;52677;50.898;10.854;2023-02-22T07:55:48;98401.75;;;2.51;100.00
65897;BME280;52677;50.898;10.854;2023-02-22T07:57:51;98410.25;;;2.58;100.00
65897;BME280;52677;50.898;10.854;2023-02-22T07:59:51;98396.41;;;2.63;100.00
65897;BME280;52677;50.898;10.854;2023-02-22T08:01:52;98408.09;;;2.72;100.00
65897;BME280;52677;50.898;10.854;2023-02-22T08:03:53;98408.72;;;2.78;100.00
65897;BME280;52677;50.898;10.854;2023-02-22T08:05:56;98402.28;;;2.83;100.00
65897;BME280;52677;50.898;10.854;2023-02-22T08:07:56;98400.75;;;2.94;100.00
65897;BME280;52677;50.898;10.854;2023-02-22T08:09:57;98390.59;;;3.03;100.00
65897;BME280;52677;50.898;10.854;2023-02-22T08:11:57;98393.72;;;3.14;100.00
65897;BME280;52677;50.898;10.854;2023-02-22T08:13:57;98389.34;;;3.21;100.00
65897;BME280;52677;50.898;10.854;2023-02-22T08:15:58;98397.47;;;3.30;100.00
65897;BME280;52677;50.898;10.854;2023-02-22T08:17:59;98389.09;;;3.35;100.00
65897;BME280;52677;50.898;10.854;2023-02-22T08:20:00;98394.84;;;3.42;100.00
65897;BME280;52677;50.898;10.854;2023-02-22T08:22:00;98394.78;;;3.51;100.00
65897;BME280;52677;50.898;10.854;2023-02-22T08:24:01;98390.22;;;3.55;100.00
65897;BME280;52677;50.898;10.854;2023-02-22T08:26:09;98387.63;;;3.58;100.00
65897;BME280;52677;50.898;10.854;2023-02-22T08:28:12;98393.97;;;3.71;100.00
65897;BME280;52677;50.898;10.854;2023-02-22T08:30:17;98388.41;;;3.80;100.00
65897;BME280;52677;50.898;10.854;2023-02-22T08:32:18;98390.59;;;3.86;100.00
65897;BME280;52677;50.898;10.854;2023-02-22T08:34:19;98379.81;;;3.90;100.00
65897;BME280;52677;50.898;10.854;2023-02-22T08:36:19;98386.78;;;4.00;100.00
65897;BME280;52677;50.898;10.854;2023-02-22T08:38:24;98383.50;;;4.06;100.00
65897;BME280;52677;50.898;10.854;2023-02-22T08:40:28;98382.16;;;4.12;100.00
65897;BME280;52677;50.898;10.854;2023-02-22T08:42:30;98385.13;;;4.19;100.00
65897;BME280;52677;50.898;10.854;2023-02-22T08:44:30;98377.28;;;4.30;100.00
65897;BME280;52677;50.898;10.854;2023-02-22T08:46:30;98381.53;;;4.40;100.00
65897;BME280;52677;50.898;10.854;2023-02-22T08:48:31;98375.03;;;4.44;100.00
65897;BME280;52677;50.898;10.854;2023-02-22T08:50:32;98373.69;;;4.50;100.00
65897;BME280;52677;50.898;10.854;2023-02-22T08:52:35;98381.69;;;4.56;100.00
65897;BME280;52677;50.898;10.854;2023-02-22T08:54:35;98369.69;;;4.60;100.00
65897;BME280;52677;50.898;10.854;2023-02-22T08:56:36;98381.78;;;4.71;100.00
65897;BME280;52677;50.898;10.854;2023-02-22T08:58:36;98381.56;;;4.76;100.00
65897;BME280;52677;50.898;10.854;2023-02-22T09:00:38;98374.03;;;4.86;100.00
65897;BME280;52677;50.898;10.854;2023-02-22T09:02:39;98372.34;;;4.93;100.00
65897;BME280;52677;50.898;10.854;2023-02-22T09:04:40;98361.94;;;4.99;100.00
65897;BME280;52677;50.898;10.854;2023-02-22T09:06:42;98370.13;;;5.11;100.00
65897;BME280;52677;50.898;10.854;2023-02-22T09:08:43;98366.47;;;5.19;100.00
65897;BME280;52677;50.898;10.854;2023-02-22T09:10:43;98372.75;;;5.32;100.00
65897;BME280;52677;50.898;10.854;2023-02-22T09:12:44;98365.19;;;5.41;100.00
65897;BME280;52677;50.898;10.854;2023-02-22T09:14:44;98372.03;;;5.47;100.00
65897;BME280;52677;50.898;10.854;2023-02-22T09:16:45;98369.97;;;5.56;100.00
65897;BME280;52677;50.898;10.854;2023-02-22T09:18:45;98374.03;;;5.62;100.00
65897;BME280;52677;50.898;10.854;2023-02-22T09:20:46;98366.47;;;5.72;100.00
65897;BME280;52677;50.898;10.854;2023-02-22T09:22:48;98368.28;;;5.80;100.00
65897;BME280;52677;50.898;10.854;2023-02-22T09:24:48;98356.34;;;5.88;100.00
65897;BME280;52677;50.898;10.854;2023-02-22T09:26:49;98360.94;;;5.96;100.00
65897;BME280;52677;50.898;10.854;2023-02-22T09:28:53;98359.25;;;6.07;100.00
65897;BME280;52677;50.898;10.854;2023-02-22T09:30:53;98359.47;;;6.14;100.00
65897;BME280;52677;50.898;10.854;2023-02-22T09:32:56;98359.91;;;6.16;100.00
65897;BME280;52677;50.898;10.854;2023-02-22T09:34:57;98354.69;;;6.27;100.00
65897;BME280;52677;50.898;10.854;2023-02-22T09:36:57;98354.06;;;6.34;100.00
65897;BME280;52677;50.898;10.854;2023-02-22T09:38:57;98357.00;;;6.41;100.00
65897;BME280;52677;50.898;10.854;2023-02-22T09:43:07;98348.50;;;6.46;100.00
65897;BME280;52677;50.898;10.854;2023-02-22T09:45:23;98349.75;;;6.48;100.00
65897;BME280;52677;50.898;10.854;2023-02-22T09:47:37;98342.03;;;6.54;100.00
65897;BME280;52677;50.898;10.854;2023-02-22T09:49:43;98345.31;;;6.60;100.00
65897;BME280;52677;50.898;10.854;2023-02-22T09:51:51;98344.94;;;6.61;100.00
65897;BME280;52677;50.898;10.854;2023-02-22T09:53:55;98339.63;;;6.68;100.00
65897;BME280;52677;50.898;10.854;2023-02-22T09:56:10;98339.25;;;6.86;100.00
65897;BME280;52677;50.898;10.854;2023-02-22T10:00:37;98324.78;;;7.04;100.00
65897;BME280;52677;50.898;10.854;2023-02-22T10:04:58;98327.84;;;7.19;100.00
65897;BME280;52677;50.898;10.854;2023-02-22T10:07:20;98321.34;;;7.27;100.00
65897;BME280;52677;50.898;10.854;2023-02-22T10:09:26;98325.84;;;7.35;100.00
65897;BME280;52677;50.898;10.854;2023-02-22T10:12:01;98318.09;;;7.41;100.00
65897;BME280;52677;50.898;10.854;2023-02-22T10:14:26;98315.19;;;7.53;100.00
65897;BME280;52677;50.898;10.854;2023-02-22T10:16:37;98317.53;;;7.70;100.00
65897;BME280;52677;50.898;10.854;2023-02-22T10:20:56;98313.22;;;7.92;100.00
65897;BME280;52677;50.898;10.854;2023-02-22T10:23:15;98311.78;;;7.98;100.00
65897;BME280;52677;50.898;10.854;2023-02-22T10:25:20;98305.97;;;8.03;100.00
65897;BME280;52677;50.898;10.854;2023-02-22T10:27:28;98305.75;;;8.12;100.00
65897;BME280;52677;50.898;10.854;2023-02-22T10:29:40;98297.28;;;8.24;100.00
65897;BME280;52677;50.898;10.854;2023-02-22T10:31:43;98306.22;;;8.37;100.00
65897;BME280;52677;50.898;10.854;2023-02-22T10:33:46;98298.91;;;8.48;100.00
65897;BME280;52677;50.898;10.854;2023-02-22T10:35:47;98300.78;;;8.67;100.00
65897;BME280;52677;50.898;10.854;2023-02-22T10:37:51;98295.03;;;8.76;100.00
65897;BME280;52677;50.898;10.854;2023-02-22T10:40:13;98290.84;;;8.85;100.00
65897;BME280;52677;50.898;10.854;2023-02-22T10:42:16;98274.66;;;8.84;100.00
65897;BME280;52677;50.898;10.854;2023-02-22T10:44:16;98282.34;;;8.97;100.00
65897;BME280;52677;50.898;10.854;2023-02-22T10:46:19;98277.38;;;9.07;100.00
65897;BME280;52677;50.898;10.854;2023-02-22T10:48:22;98278.66;;;9.16;100.00
65897;BME280;52677;50.898;10.854;2023-02-22T10:50:26;98278.00;;;9.26;100.00
65897;BME280;52677;50.898;10.854;2023-02-22T10:52:31;98276.94;;;9.35;100.00
65897;BME280;52677;50.898;10.854;2023-02-22T10:54:37;98271.19;;;9.47;100.00
65897;BME280;52677;50.898;10.854;2023-02-22T10:56:54;98268.84;;;9.49;100.00
65897;BME280;52677;50.898;10.854;2023-02-22T10:58:57;98274.50;;;9.60;100.00
65897;BME280;52677;50.898;10.854;2023-02-22T11:01:42;98274.56;;;9.67;100.00
65897;BME280;52677;50.898;10.854;2023-02-22T11:03:42;98276.69;;;9.77;100.00
65897;BME280;52677;50.898;10.854;2023-02-22T11:05:44;98275.53;;;9.81;100.00
65897;BME280;52677;50.898;10.854;2023-02-22T11:07:45;98267.72;;;9.87;100.00
65897;BME280;52677;50.898;10.854;2023-02-22T11:09:51;98269.78;;;9.94;100.00